Time;durP1;ratioP1;P1;durP2;ratioP2;P2;SDS_P1;SDS_P2;PMS_P1;PMS_P2;Temp;Humidity;BMP_temperature;BMP_pressure;BME280_temperature;BME280_humidity;BME280_pressure;Samples;Min_cycle;Max_cycle;Signal;HPM_P1;HPM_P2
2022/08/28 00:01:44;;;;;;;13.40;8.00;;;;;;;18.99;100.00;100666.41;5021582;28;20065;-59
2022/08/28 00:04:11;;;;;;;13.35;7.97;;;;;;;18.94;100.00;100674.84;5021775;28;20060;-62
2022/08/28 00:06:38;;;;;;;13.07;7.88;;;;;;;18.89;100.00;100671.75;5014778;28;20053;-60
2022/08/28 00:09:06;;;;;;;13.18;8.15;;;;;;;18.93;100.00;100667.81;5017228;28;20065;-62
2022/08/28 00:11:38;;;;;;;14.57;7.22;;;;;;;18.90;100.00;100669.94;5020990;28;20053;-60
2022/08/28 00:14:08;;;;;;;12.70;7.57;;;;;;;18.88;100.00;100679.91;5023326;28;20046;-63
2022/08/28 00:16:35;;;;;;;13.40;6.78;;;;;;;18.78;100.00;100673.72;5017299;28;20057;-59
2022/08/28 00:19:03;;;;;;;12.07;6.68;;;;;;;18.77;100.00;100677.38;5011111;28;20053;-61
2022/08/28 00:21:32;;;;;;;10.02;6.47;;;;;;;18.75;100.00;100677.53;5029452;28;20093;-59
2022/08/28 00:23:59;;;;;;;11.45;6.88;;;;;;;18.76;100.00;100676.56;5026920;28;20045;-58
2022/08/28 00:29:13;;;;;;;10.75;7.22;;;;;;;18.79;100.00;100676.28;5020140;28;20053;-60
2022/08/28 00:31:40;;;;;;;12.43;6.78;;;;;;;18.75;100.00;100674.88;5023630;28;20061;-60
2022/08/28 00:34:07;;;;;;;14.73;7.20;;;;;;;18.76;100.00;100679.22;5029930;28;20046;-61
2022/08/28 00:36:36;;;;;;;13.98;8.13;;;;;;;18.74;100.00;100680.38;5027971;28;20061;-62
2022/08/28 00:39:05;;;;;;;10.60;6.25;;;;;;;18.71;100.00;100684.13;5021953;28;20050;-61
2022/08/28 00:41:33;;;;;;;9.07;6.97;;;;;;;18.69;100.00;100676.28;5032147;28;20124;-63
2022/08/28 00:44:21;;;;;;;12.52;6.85;;;;;;;18.69;100.00;100680.78;5027293;28;20045;-62
2022/08/28 00:46:52;;;;;;;10.98;7.50;;;;;;;18.63;100.00;100673.31;5018637;28;20045;-62
2022/08/28 00:49:26;;;;;;;12.65;6.68;;;;;;;18.58;100.00;100672.88;5025802;28;20136;-58
2022/08/28 00:52:07;;;;;;;13.67;7.13;;;;;;;18.59;100.00;100674.56;5025596;28;20057;-62
2022/08/28 00:54:42;;;;;;;11.38;7.28;;;;;;;18.63;100.00;100674.13;5017922;28;20058;-63
2022/08/28 00:57:30;;;;;;;8.60;6.28;;;;;;;18.63;100.00;100675.97;5035339;28;20217;-62
2022/08/28 00:59:58;;;;;;;16.40;7.60;;;;;;;18.55;100.00;100676.69;5030740;28;20076;-63
2022/08/28 01:02:26;;;;;;;14.73;7.28;;;;;;;18.45;100.00;100668.66;5019815;28;20053;-63
2022/08/28 01:04:54;;;;;;;17.40;7.53;;;;;;;18.44;100.00;100672.31;5031468;28;20045;-63
2022/08/28 01:07:22;;;;;;;10.82;6.90;;;;;;;18.40;100.00;100664.75;5026738;28;20040;-61
2022/08/28 01:09:52;;;;;;;13.50;6.57;;;;;;;18.39;100.00;100671.06;5026434;28;20125;-60
2022/08/28 01:12:26;;;;;;;13.20;6.32;;;;;;;18.43;100.00;100672.47;5021631;28;20060;-63
2022/08/28 01:14:57;;;;;;;15.48;5.43;;;;;;;18.49;100.00;100671.91;5020495;28;20392;-62
2022/08/28 01:17:30;;;;;;;12.27;5.90;;;;;;;18.51;100.00;100677.94;5026951;28;20172;-62
2022/08/28 01:20:03;;;;;;;11.48;5.80;;;;;;;18.48;100.00;100678.22;5019707;28;20060;-61
2022/08/28 01:22:38;;;;;;;10.82;5.80;;;;;;;18.51;100.00;100672.63;5021974;28;20080;-61
2022/08/28 01:25:09;;;;;;;13.25;6.35;;;;;;;18.53;100.00;100675.13;5018866;28;20053;-61
2022/08/28 01:27:40;;;;;;;11.98;5.80;;;;;;;18.53;100.00;100672.47;5015066;28;20065;-62
2022/08/28 01:30:10;;;;;;;13.10;5.93;;;;;;;18.52;100.00;100679.63;5024411;28;20453;-61
2022/08/28 01:32:40;;;;;;;10.85;5.85;;;;;;;18.55;100.00;100675.81;5025451;28;20083;-62
2022/08/28 01:35:10;;;;;;;14.88;6.10;;;;;;;18.55;100.00;100682.03;5022529;28;20525;-60
2022/08/28 01:37:37;;;;;;;10.73;5.82;;;;;;;18.58;100.00;100678.22;5017617;28;20057;-63
2022/08/28 01:40:08;;;;;;;15.27;6.28;;;;;;;18.56;100.00;100674.88;5024228;28;20056;-60
2022/08/28 01:42:38;;;;;;;10.50;5.45;;;;;;;18.54;100.00;100682.97;5026726;28;20061;-62
2022/08/28 01:45:09;;;;;;;12.98;7.00;;;;;;;18.51;100.00;100677.94;5024551;28;20139;-60
2022/08/28 01:47:37;;;;;;;10.15;5.97;;;;;;;18.43;100.00;100680.47;5025313;28;20050;-61
2022/08/28 01:50:07;;;;;;;13.43;6.85;;;;;;;18.40;100.00;100680.75;5022940;28;20156;-63
2022/08/28 01:52:35;;;;;;;12.88;6.00;;;;;;;18.40;100.00;100670.06;5025505;28;20045;-62
2022/08/28 01:55:04;;;;;;;18.60;6.97;;;;;;;18.37;100.00;100665.00;5018350;28;20056;-60
2022/08/28 01:57:32;;;;;;;14.82;6.78;;;;;;;18.30;100.00;100671.91;5014392;28;20054;-61
2022/08/28 01:59:59;;;;;;;18.42;8.52;;;;;;;18.24;100.00;100670.63;5017595;28;20037;-61
2022/08/28 02:02:26;;;;;;;13.43;6.95;;;;;;;18.25;100.00;100674.16;5027798;28;20041;-63
2022/08/28 02:04:53;;;;;;;12.50;6.82;;;;;;;18.27;100.00;100670.34;5019970;28;20077;-59
2022/08/28 02:07:21;;;;;;;18.52;7.68;;;;;;;18.29;100.00;100672.88;5015775;28;20131;-62
2022/08/28 02:09:48;;;;;;;12.48;7.07;;;;;;;18.26;100.00;100670.50;5038628;28;20045;-59
2022/08/28 02:12:16;;;;;;;10.27;6.63;;;;;;;18.23;100.00;100677.75;5022165;28;20156;-59
2022/08/28 02:14:43;;;;;;;18.15;8.40;;;;;;;18.25;100.00;100676.81;5028676;28;20057;-61
2022/08/28 02:17:10;;;;;;;14.48;7.80;;;;;;;18.22;100.00;100676.09;5023434;28;20122;-62
2022/08/28 02:19:38;;;;;;;17.20;8.32;;;;;;;18.24;100.00;100670.63;5027783;28;20495;-63
2022/08/28 02:22:07;;;;;;;19.85;9.18;;;;;;;18.27;100.00;100669.50;5022716;28;20125;-61
2022/08/28 02:24:34;;;;;;;18.38;8.38;;;;;;;18.27;100.00;100673.00;5020057;28;20491;-61
2022/08/28 02:27:03;;;;;;;15.02;8.95;;;;;;;18.19;100.00;100673.72;5020410;28;20530;-61
2022/08/28 02:29:30;;;;;;;16.73;10.07;;;;;;;18.20;100.00;100675.41;5025618;28;20065;-61
2022/08/28 02:31:57;;;;;;;16.08;8.85;;;;;;;18.19;100.00;100678.19;5025413;28;20053;-61
2022/08/28 02:34:25;;;;;;;12.27;9.00;;;;;;;18.16;100.00;100676.66;5029546;28;20061;-62
2022/08/28 02:36:52;;;;;;;15.38;8.90;;;;;;;18.14;100.00;100672.44;5027449;28;20072;-63
2022/08/28 02:39:19;;;;;;;14.57;8.55;;;;;;;18.14;100.00;100675.09;5020222;28;20049;-64
2022/08/28 02:41:46;;;;;;;18.10;10.07;;;;;;;18.14;100.00;100675.94;5018594;28;20076;-62
2022/08/28 02:44:13;;;;;;;17.80;10.18;;;;;;;18.08;100.00;100676.50;5034916;28;20410;-61
2022/08/28 02:46:40;;;;;;;14.07;10.20;;;;;;;18.06;100.00;100672.31;5026579;28;20083;-60
2022/08/28 02:49:07;;;;;;;17.38;10.15;;;;;;;18.01;100.00;100675.34;5018033;28;20054;-61
2022/08/28 02:51:35;;;;;;;17.92;11.65;;;;;;;17.96;100.00;100682.91;5017241;28;20061;-61
2022/08/28 02:54:02;;;;;;;20.25;9.90;;;;;;;17.98;100.00;100688.13;5044688;28;20068;-61
2022/08/28 02:56:29;;;;;;;18.85;10.90;;;;;;;18.00;100.00;100687.00;5014909;28;20041;-61
2022/08/28 02:58:57;;;;;;;20.45;11.20;;;;;;;17.93;100.00;100680.53;5024166;28;20389;-62
2022/08/28 03:01:24;;;;;;;18.75;11.63;;;;;;;17.88;100.00;100680.94;5015175;28;20060;-60
2022/08/28 03:03:51;;;;;;;18.48;11.80;;;;;;;17.84;100.00;100684.84;5021702;28;20046;-62
2022/08/28 03:06:19;;;;;;;22.23;10.30;;;;;;;17.85;100.00;100677.72;5012850;28;20053;-60
2022/08/28 03:08:46;;;;;;;20.58;10.88;;;;;;;17.80;100.00;100678.13;5020276;28;20046;-61
2022/08/28 03:11:13;;;;;;;17.45;9.85;;;;;;;17.77;100.00;100688.19;5025834;28;20053;-61
2022/08/28 03:13:41;;;;;;;15.52;9.85;;;;;;;17.77;100.00;100685.53;5013470;28;20425;-60
2022/08/28 03:16:08;;;;;;;12.43;9.13;;;;;;;17.77;100.00;100683.69;5023515;28;20123;-63
2022/08/28 03:18:35;;;;;;;14.05;9.90;;;;;;;17.73;100.00;100684.91;5017931;28;20153;-61
2022/08/28 03:21:03;;;;;;;19.13;9.25;;;;;;;17.65;100.00;100682.94;5014461;28;20064;-62
2022/08/28 03:23:30;;;;;;;14.57;8.38;;;;;;;17.67;100.00;100683.63;5028082;28;20049;-56
2022/08/28 03:26:09;;;;;;;16.52;7.95;;;;;;;17.72;100.00;100689.41;5016945;28;20060;-61
2022/08/28 03:28:40;;;;;;;16.00;7.85;;;;;;;17.69;100.00;100681.66;5013379;28;20050;-62
2022/08/28 03:31:10;;;;;;;17.38;8.35;;;;;;;17.64;100.00;100681.25;5037786;28;20042;-61
2022/08/28 03:33:37;;;;;;;19.40;7.80;;;;;;;17.68;100.00;100685.31;5021662;28;20064;-60
2022/08/28 03:36:13;;;;;;;15.90;7.22;;;;;;;17.70;100.00;100683.38;5017219;28;20528;-65
2022/08/28 03:38:41;;;;;;;12.52;7.03;;;;;;;17.68;100.00;100693.31;5018176;28;20124;-60
2022/08/28 03:41:13;;;;;;;13.25;7.20;;;;;;;17.72;100.00;100693.88;5019232;28;20053;-60
2022/08/28 03:43:41;;;;;;;14.73;7.03;;;;;;;17.76;100.00;100683.84;5015433;28;20140;-62
2022/08/28 03:46:12;;;;;;;15.60;7.47;;;;;;;17.77;100.00;100685.53;5037685;28;20064;-62
2022/08/28 03:48:40;;;;;;;11.38;6.95;;;;;;;17.71;100.00;100693.03;5041326;28;21167;-61
2022/08/28 03:51:13;;;;;;;14.25;7.32;;;;;;;17.70;100.00;100687.88;5020954;28;20622;-61
2022/08/28 03:53:42;;;;;;;18.83;7.80;;;;;;;17.68;100.00;100693.31;5025666;28;20085;-58
2022/08/28 03:56:12;;;;;;;12.00;6.80;;;;;;;17.67;100.00;100688.13;5024009;28;20041;-63
2022/08/28 03:58:40;;;;;;;14.27;6.68;;;;;;;17.62;100.00;100690.34;5028806;28;20056;-61
2022/08/28 04:01:08;;;;;;;13.35;7.57;;;;;;;17.57;100.00;100690.75;5020163;28;20049;-61
2022/08/28 04:03:35;;;;;;;16.42;6.50;;;;;;;17.51;100.00;100693.09;5023679;28;20145;-63
2022/08/28 04:06:03;;;;;;;16.90;5.93;;;;;;;17.49;100.00;100695.06;5022853;28;20042;-64
2022/08/28 04:08:30;;;;;;;15.00;5.95;;;;;;;17.55;100.00;100703.34;5029071;28;20048;-62
2022/08/28 04:10:59;;;;;;;9.00;6.13;;;;;;;17.61;100.00;100696.66;5028909;28;20052;-62
2022/08/28 04:13:27;;;;;;;14.02;6.75;;;;;;;17.54;100.00;100706.97;5031656;28;20139;-61
2022/08/28 04:15:58;;;;;;;11.52;6.57;;;;;;;17.45;100.00;100705.97;5028730;28;20049;-60
2022/08/28 04:18:26;;;;;;;12.82;5.88;;;;;;;17.43;100.00;100717.72;5024615;28;20511;-61
2022/08/28 04:21:01;;;;;;;13.02;6.32;;;;;;;17.40;100.00;100715.31;5027578;28;20042;-60
2022/08/28 04:23:29;;;;;;;16.70;6.47;;;;;;;17.39;100.00;100714.47;5026157;28;20124;-57
2022/08/28 04:25:56;;;;;;;17.00;5.97;;;;;;;17.39;100.00;100716.31;5027842;28;20065;-62
2022/08/28 04:28:24;;;;;;;15.32;6.70;;;;;;;17.33;100.00;100716.81;5028168;28;20049;-62
2022/08/28 04:30:53;;;;;;;11.02;5.38;;;;;;;17.31;100.00;100727.59;5030647;28;20056;-62
2022/08/28 04:33:22;;;;;;;13.13;5.63;;;;;;;17.29;100.00;100728.69;5024978;28;20052;-60
2022/08/28 04:35:49;;;;;;;14.13;5.72;;;;;;;17.28;100.00;100733.16;5027151;28;20507;-59
2022/08/28 04:38:17;;;;;;;14.40;5.30;;;;;;;17.26;100.00;100742.28;5022596;28;20056;-61
2022/08/28 04:40:44;;;;;;;14.45;6.35;;;;;;;17.28;100.00;100742.97;5027990;28;20153;-61
2022/08/28 04:43:11;;;;;;;15.95;5.72;;;;;;;17.24;100.00;100742.38;5053713;22;20056;-60
2022/08/28 04:45:40;;;;;;;14.45;5.88;;;;;;;17.18;100.00;100743.75;5065542;28;20060;-61
2022/08/28 04:48:07;;;;;;;12.65;5.65;;;;;;;17.15;100.00;100748.50;5072477;28;20048;-61
2022/08/28 04:50:44;;;;;;;14.93;5.68;;;;;;;17.11;100.00;100745.28;5066695;28;20052;-62
2022/08/28 04:53:13;;;;;;;14.55;5.18;;;;;;;17.08;100.00;100750.84;5061451;28;20427;-64
2022/08/28 04:55:47;;;;;;;15.60;5.72;;;;;;;17.08;100.00;100750.00;5045958;28;20065;-63
2022/08/28 04:58:21;;;;;;;18.08;6.18;;;;;;;17.02;100.00;100739.84;5042780;28;20052;-61
2022/08/28 05:00:51;;;;;;;17.65;5.40;;;;;;;16.95;100.00;100744.84;5041339;28;20037;-62
2022/08/28 05:03:19;;;;;;;14.23;4.70;;;;;;;16.91;100.00;100746.09;5044445;28;20584;-60
2022/08/28 05:05:52;;;;;;;11.25;4.75;;;;;;;16.91;100.00;100748.75;5047277;28;20540;-61
2022/08/28 05:08:22;;;;;;;15.18;5.32;;;;;;;16.88;100.00;100749.00;5043657;28;20148;-60
2022/08/28 05:10:50;;;;;;;17.83;4.93;;;;;;;16.86;100.00;100746.47;5046500;28;20045;-61
2022/08/28 05:13:18;;;;;;;16.85;4.88;;;;;;;16.81;100.00;100754.00;5050700;28;20052;-61
2022/08/28 05:15:48;;;;;;;16.95;6.00;;;;;;;16.73;100.00;100755.59;5048660;28;20044;-60
2022/08/28 05:18:17;;;;;;;16.42;5.40;;;;;;;16.71;100.00;100753.03;5051916;28;20494;-60
2022/08/28 05:20:46;;;;;;;13.95;4.85;;;;;;;16.68;100.00;100753.28;5050958;28;20056;-61
2022/08/28 05:23:14;;;;;;;17.52;5.03;;;;;;;16.65;100.00;100754.38;5050659;28;20049;-62
2022/08/28 05:25:43;;;;;;;18.30;5.40;;;;;;;16.66;100.00;100752.53;5050581;28;20476;-60
2022/08/28 05:28:18;;;;;;;12.88;4.10;;;;;;;16.68;100.00;100755.94;5050964;28;20053;-63
2022/08/28 05:30:45;;;;;;;16.30;4.50;;;;;;;16.70;100.00;100761.97;5048775;28;20114;-62
2022/08/28 05:33:13;;;;;;;14.40;4.90;;;;;;;16.68;100.00;100761.25;5051510;28;20076;-61
2022/08/28 05:35:42;;;;;;;13.68;4.55;;;;;;;16.69;100.00;100760.28;5051185;28;20529;-62
2022/08/28 05:38:11;;;;;;;17.63;5.00;;;;;;;16.68;100.00;100772.72;5052428;28;20049;-62
2022/08/28 05:40:44;;;;;;;12.93;4.28;;;;;;;16.72;100.00;100768.03;5047386;28;20422;-60
2022/08/28 05:43:13;;;;;;;18.27;4.32;;;;;;;16.73;100.00;100772.38;5051385;28;20060;-61
2022/08/28 05:45:40;;;;;;;18.73;4.35;;;;;;;16.75;100.00;100775.78;5050921;28;20605;-61
2022/08/28 05:48:07;;;;;;;19.33;4.28;;;;;;;16.78;100.00;100774.66;5041077;28;20518;-62
2022/08/28 05:50:38;;;;;;;10.90;4.65;;;;;;;16.72;100.00;100770.69;5048073;28;20437;-61
2022/08/28 05:53:10;;;;;;;;;;;;;;;16.64;100.00;100767.78;5051394;28;20447;-62
2022/08/28 05:55:39;;;;;;;14.70;4.03;;;;;;;16.59;100.00;100773.50;5047664;28;20016;-63
2022/08/28 06:00:52;;;;;;;17.10;4.32;;;;;;;16.38;100.00;100770.75;5050256;28;20053;-62
2022/08/28 06:03:19;;;;;;;17.52;4.32;;;;;;;16.37;100.00;100782.34;5050454;28;20052;-62
2022/08/28 06:05:53;;;;;;;14.40;4.57;;;;;;;16.33;100.00;100774.75;5049696;28;20510;-61
2022/08/28 06:08:22;;;;;;;19.77;5.15;;;;;;;16.25;100.00;100772.69;5050824;28;20053;-62
2022/08/28 06:10:49;;;;;;;14.82;5.18;;;;;;;16.17;100.00;100773.34;5043699;28;20445;-61
2022/08/28 06:13:17;;;;;;;16.35;4.82;;;;;;;16.15;100.00;100777.06;5045716;28;20059;-61
2022/08/28 06:15:45;;;;;;;19.92;5.97;;;;;;;16.06;100.00;100778.66;5047080;28;20522;-62
2022/08/28 06:18:13;;;;;;;16.75;5.22;;;;;;;16.01;100.00;100786.13;5050706;28;20045;-61
2022/08/28 06:20:43;;;;;;;18.42;5.95;;;;;;;16.01;100.00;100778.16;5050554;28;20503;-60
2022/08/28 06:23:14;;;;;;;17.13;5.35;;;;;;;16.01;100.00;100780.00;5043470;28;20046;-56
2022/08/28 06:25:50;;;;;;;19.30;6.07;;;;;;;16.09;100.00;100778.41;5050157;28;20049;-60
2022/08/28 06:28:20;;;;;;;13.50;4.65;;;;;;;16.09;100.00;100783.72;5049872;28;20049;-59
2022/08/28 06:30:48;;;;;;;11.60;4.60;;;;;;;16.05;100.00;100784.09;5043877;28;20063;-61
2022/08/28 06:33:35;;;;;;;17.58;5.03;;;;;;;15.96;100.00;100788.31;5043709;28;20144;-59
2022/08/28 06:36:04;;;;;;;21.15;5.93;;;;;;;15.91;100.00;100786.03;5045657;28;20834;-60
2022/08/28 06:38:31;;;;;;;17.52;5.28;;;;;;;15.90;100.00;100788.81;5043910;28;20059;-60
2022/08/28 06:40:58;;;;;;;19.15;5.35;;;;;;;15.97;100.00;100790.00;5048066;28;20640;-61
2022/08/28 06:43:27;;;;;;;16.48;5.60;;;;;;;16.01;100.00;100796.75;5045382;28;20044;-61
2022/08/28 06:45:56;;;;;;;17.48;6.13;;;;;;;15.97;100.00;100795.31;5060144;28;20088;-61
2022/08/28 06:48:26;;;;;;;14.63;4.80;;;;;;;15.98;100.00;100807.63;5047062;28;20068;-61
2022/08/28 06:50:54;;;;;;;15.10;5.20;;;;;;;16.01;100.00;100801.22;5043992;28;20076;-61
2022/08/28 06:53:23;;;;;;;18.67;5.68;;;;;;;15.97;100.00;100805.94;5043025;28;20049;-61
2022/08/28 06:55:57;;;;;;;18.40;5.65;;;;;;;15.99;100.00;100811.97;5045598;28;20056;-60
2022/08/28 06:58:26;;;;;;;14.90;5.10;;;;;;;15.96;100.00;100812.22;5044463;28;20060;-60
2022/08/28 07:01:15;;;;;;;28.48;6.97;;;;;;;16.02;100.00;100814.38;5047997;28;20529;-61
2022/08/28 07:03:43;;;;;;;21.58;6.15;;;;;;;16.06;100.00;100823.78;5044552;28;20076;-60
2022/08/28 07:06:12;;;;;;;15.70;5.78;;;;;;;16.10;100.00;100816.44;5040457;28;20056;-61
2022/08/28 07:08:41;;;;;;;24.77;6.15;;;;;;;16.09;100.00;100820.91;5047879;28;20053;-60
2022/08/28 07:11:16;;;;;;;15.05;5.32;;;;;;;16.14;100.00;100823.19;5044874;28;20432;-60
2022/08/28 07:13:44;;;;;;;25.42;6.13;;;;;;;16.18;100.00;100827.31;5046559;28;20060;-60
2022/08/28 07:16:13;;;;;;;16.08;5.53;;;;;;;16.09;100.00;100820.06;5045347;28;20388;-61
2022/08/28 07:18:40;;;;;;;18.77;6.70;;;;;;;16.05;100.00;100824.78;5047094;28;20059;-60
2022/08/28 07:21:08;;;;;;;16.25;5.80;;;;;;;16.10;100.00;100835.88;5048569;28;20128;-60
2022/08/28 07:23:40;;;;;;;16.48;5.25;;;;;;;16.24;100.00;100836.59;5042268;28;20072;-61
2022/08/28 07:26:10;;;;;;;24.02;6.07;;;;;;;16.30;100.00;100836.97;5049968;28;20045;-61
2022/08/28 07:28:38;;;;;;;14.75;4.20;;;;;;;16.42;100.00;100841.28;5049124;28;20059;-58
2022/08/28 07:31:09;;;;;;;18.15;5.30;;;;;;;16.44;100.00;100846.50;5046758;28;20499;-62
2022/08/28 07:33:37;;;;;;;17.02;5.75;;;;;;;16.39;100.00;100848.66;5040236;28;20068;-61
2022/08/28 07:36:09;;;;;;;16.95;5.90;;;;;;;16.35;100.00;100863.16;5040055;28;20549;-61
2022/08/28 07:38:50;;;;;;;13.98;5.55;;;;;;;16.32;100.00;100864.25;5044194;28;20514;-61
2022/08/28 07:41:22;;;;;;;17.73;6.13;;;;;;;16.22;100.00;100867.75;5046441;28;20048;-62
2022/08/28 07:46:37;;;;;;;18.55;5.53;;;;;;;16.22;100.00;100865.94;5062911;28;20056;-60
2022/08/28 07:49:06;;;;;;;13.85;5.57;;;;;;;16.26;100.00;100858.59;5045218;28;20060;-58
2022/08/28 07:51:34;;;;;;;17.50;6.53;;;;;;;16.26;100.00;100859.44;5041470;28;20052;-62
2022/08/28 07:54:02;;;;;;;11.27;4.90;;;;;;;16.35;100.00;100863.16;5049134;28;20525;-62
2022/08/28 07:56:30;;;;;;;14.10;5.32;;;;;;;16.39;100.00;100870.78;5053559;28;20048;-60
2022/08/28 07:58:59;;;;;;;17.98;6.53;;;;;;;16.44;100.00;100862.44;5045794;28;20481;-61
2022/08/28 08:01:28;;;;;;;14.13;5.28;;;;;;;16.47;100.00;100872.81;5043111;28;20052;-61
2022/08/28 08:03:57;;;;;;;12.48;5.30;;;;;;;16.50;100.00;100867.25;5043543;28;20053;-60
2022/08/28 08:06:30;;;;;;;14.07;6.28;;;;;;;16.64;100.00;100866.97;5040867;28;20746;-59
2022/08/28 08:09:01;;;;;;;17.10;5.22;;;;;;;16.61;100.00;100867.22;5044217;28;20060;-61
2022/08/28 08:11:29;;;;;;;16.27;5.78;;;;;;;16.59;100.00;100871.81;5039342;28;20056;-60
2022/08/28 08:14:04;;;;;;;20.55;5.18;;;;;;;16.65;100.00;100876.63;5045615;28;20057;-61
2022/08/28 08:16:35;;;;;;;17.30;4.53;;;;;;;16.74;100.00;100879.56;5044017;28;20057;-60
2022/08/28 08:19:02;;;;;;;12.82;4.85;;;;;;;16.86;100.00;100879.41;5041549;28;20449;-61
2022/08/28 08:21:30;;;;;;;15.63;5.53;;;;;;;16.80;100.00;100879.09;5046636;28;20041;-61
2022/08/28 08:23:58;;;;;;;18.15;5.90;;;;;;;16.83;100.00;100879.66;5044029;28;20069;-60
2022/08/28 08:26:29;;;;;;;17.13;5.72;;;;;;;16.87;100.00;100888.25;5045063;28;20711;-60
2022/08/28 08:28:56;;;;;;;17.58;5.38;;;;;;;16.77;100.00;100881.97;5045267;28;20052;-61
2022/08/28 08:31:25;;;;;;;16.10;6.88;;;;;;;16.75;100.00;100883.91;5037805;28;20034;-61
2022/08/28 08:33:56;;;;;;;15.00;5.43;;;;;;;16.80;100.00;100890.56;5037527;28;20105;-60
2022/08/28 08:36:25;;;;;;;17.17;4.95;;;;;;;16.84;100.00;100888.47;5036652;28;20049;-61
2022/08/28 08:38:54;;;;;;;15.70;5.72;;;;;;;16.89;100.00;100889.81;5042564;28;20065;-61
2022/08/28 08:41:37;;;;;;;15.13;5.00;;;;;;;16.91;100.00;100898.50;5047059;28;20044;-61
2022/08/28 08:44:27;;;;;;;22.25;6.55;;;;;;;16.91;100.00;100897.66;5047314;28;20049;-62
2022/08/28 08:47:21;;;;;;;20.25;6.47;;;;;;;16.79;100.00;100894.16;5044804;28;20725;-61
2022/08/28 08:49:56;;;;;;;19.70;5.68;;;;;;;16.72;100.00;100898.31;5047586;28;20060;-61
2022/08/28 08:52:30;;;;;;;18.58;5.28;;;;;;;16.77;100.00;100900.59;5049344;28;20498;-64
2022/08/28 08:55:08;;;;;;;17.17;5.15;;;;;;;16.79;100.00;100901.31;5046713;28;20059;-62
2022/08/28 08:57:37;;;;;;;18.67;6.47;;;;;;;16.73;100.00;100900.00;5052682;28;20060;-64
2022/08/28 09:00:10;;;;;;;16.48;5.63;;;;;;;16.80;100.00;100906.53;5049803;28;20043;-62
2022/08/28 09:03:25;;;;;;;11.82;5.38;;;;;;;16.84;100.00;100904.44;5047916;28;20061;-64
2022/08/28 09:06:04;;;;;;;13.85;6.18;;;;;;;16.79;100.00;100903.97;5021296;28;20143;-61
2022/08/28 09:08:56;;;;;;;12.85;5.43;;;;;;;16.86;100.00;100903.34;5029859;28;20076;-61
2022/08/28 09:11:58;;;;;;;18.77;5.65;;;;;;;16.82;100.00;100906.38;5045461;28;20128;-60
2022/08/28 09:14:31;;;;;;;20.30;5.93;;;;;;;16.83;100.00;100908.06;5046715;28;20502;-61
2022/08/28 09:16:59;;;;;;;12.07;6.05;;;;;;;16.83;100.00;100910.72;5047554;28;20186;-62
2022/08/28 09:19:27;;;;;;;17.70;6.00;;;;;;;16.83;100.00;100913.38;5043664;28;20049;-61
2022/08/28 09:21:55;;;;;;;17.67;6.20;;;;;;;16.77;100.00;100920.06;5045921;28;20041;-60
2022/08/28 09:24:29;;;;;;;15.77;5.88;;;;;;;16.70;100.00;100913.47;5048609;28;20064;-61
2022/08/28 09:27:04;;;;;;;15.15;5.72;;;;;;;16.72;100.00;100916.91;5047780;28;20503;-60
2022/08/28 09:29:33;;;;;;;;;;;;;;;16.69;100.00;100922.44;5047412;28;20049;-62
2022/08/28 09:32:16;;;;;;;17.55;6.47;;;;;;;16.71;100.00;100916.03;5037762;28;19947;-61
2022/08/28 09:35:05;;;;;;;19.75;6.90;;;;;;;16.61;100.00;100920.38;5048194;28;20056;-61
2022/08/28 09:37:34;;;;;;;14.75;6.85;;;;;;;16.54;100.00;100915.69;5045889;28;20514;-60
2022/08/28 09:40:21;;;;;;;16.20;7.45;;;;;;;16.63;100.00;100921.13;5044159;28;20147;-61
2022/08/28 09:43:26;;;;;;;16.90;5.80;;;;;;;16.70;100.00;100927.63;5045655;28;20053;-60
2022/08/28 09:45:58;;;;;;;13.18;6.07;;;;;;;16.77;100.00;100921.88;5047261;28;20139;-61
2022/08/28 09:48:36;;;;;;;18.77;6.57;;;;;;;16.79;100.00;100919.91;5045973;28;20049;-61
2022/08/28 09:51:10;;;;;;;18.13;6.43;;;;;;;16.87;100.00;100914.84;5044328;28;20041;-60
2022/08/28 09:53:49;;;;;;;15.27;6.50;;;;;;;17.02;100.00;100926.91;5045314;28;20069;-60
2022/08/28 09:56:26;;;;;;;17.40;6.45;;;;;;;17.09;100.00;100933.41;5043547;28;20059;-61
2022/08/28 09:58:56;;;;;;;17.38;5.28;;;;;;;17.17;100.00;100941.59;5044686;28;20056;-61
2022/08/28 10:01:46;;;;;;;19.50;6.60;;;;;;;17.03;100.00;100939.22;5040078;28;20474;-61
2022/08/28 10:04:19;;;;;;;18.52;6.50;;;;;;;16.99;100.00;100940.44;5045492;28;20056;-60
2022/08/28 10:06:55;;;;;;;13.57;6.00;;;;;;;17.03;100.00;100930.41;5043362;28;20073;-60
2022/08/28 10:09:29;;;;;;;17.55;5.60;;;;;;;17.14;100.00;100939.19;5045408;28;20049;-60
2022/08/28 10:12:11;;;;;;;20.35;6.93;;;;;;;17.14;100.00;100938.34;5046104;28;20073;-60
2022/08/28 10:15:00;;;;;;;23.98;8.40;;;;;;;16.99;100.00;100942.25;5025739;28;20053;-61
2022/08/28 10:17:27;;;;;;;28.27;12.30;;;;;;;16.97;100.00;100953.00;5044148;28;20140;-61
2022/08/28 10:20:08;;;;;;;19.40;6.97;;;;;;;16.91;100.00;100961.47;5041379;28;20048;-61
2022/08/28 10:22:57;;;;;;;23.70;8.27;;;;;;;16.92;100.00;100963.16;5037572;28;20152;-61
2022/08/28 10:25:38;;;;;;;15.80;7.07;;;;;;;16.89;100.00;100956.31;5045610;28;20049;-59
2022/08/28 10:28:41;;;;;;;17.30;7.07;;;;;;;16.86;100.00;100958.34;5041851;28;20061;-61
2022/08/28 10:31:19;;;;;;;26.13;8.07;;;;;;;16.84;100.00;100958.47;5027838;28;20052;-63
2022/08/28 10:34:05;;;;;;;14.55;5.95;;;;;;;16.84;100.00;100960.28;5046609;28;20049;-61
2022/08/28 10:36:34;;;;;;;14.35;7.53;;;;;;;16.82;100.00;100962.22;5042404;28;20056;-60
2022/08/28 10:39:27;;;;;;;16.80;7.43;;;;;;;16.81;100.00;100957.88;5044117;28;20423;-61
2022/08/28 10:41:57;;;;;;;20.38;8.43;;;;;;;16.77;100.00;100972.38;5044308;28;20041;-61
2022/08/28 10:44:38;;;;;;;23.23;9.15;;;;;;;16.63;100.00;100968.13;5037928;28;20143;-61
2022/08/28 10:47:06;;;;;;;22.70;8.40;;;;;;;16.63;100.00;100974.28;5039391;28;20060;-60
2022/08/28 10:49:38;;;;;;;19.33;7.72;;;;;;;16.62;100.00;100977.91;5039432;28;20048;-61
2022/08/28 10:52:39;;;;;;;21.10;8.73;;;;;;;16.57;100.00;100977.44;5045603;28;20052;-61
2022/08/28 10:55:21;;;;;;;16.88;7.97;;;;;;;16.60;100.00;100977.16;5029521;28;20420;-61
2022/08/28 10:57:56;;;;;;;18.08;8.13;;;;;;;16.52;100.00;100979.56;5060115;28;20049;-61
2022/08/28 11:00:26;;;;;;;19.95;8.52;;;;;;;16.46;100.00;100977.41;5046175;28;20080;-60
2022/08/28 11:02:56;;;;;;;20.35;9.60;;;;;;;16.42;100.00;100984.78;5043975;28;20060;-60
2022/08/28 11:05:27;;;;;;;20.13;8.98;;;;;;;16.38;100.00;100988.63;5044260;28;20501;-61
2022/08/28 11:08:06;;;;;;;18.38;8.48;;;;;;;16.40;100.00;100984.06;5055966;28;20061;-59
2022/08/28 11:10:36;;;;;;;14.98;7.93;;;;;;;16.44;100.00;100988.16;5044776;28;20052;-61
2022/08/28 11:13:05;;;;;;;17.70;9.65;;;;;;;16.41;100.00;100992.88;5037822;28;20503;-60
2022/08/28 11:15:32;;;;;;;20.33;8.85;;;;;;;16.38;100.00;100995.75;5041665;28;20049;-61
2022/08/28 11:18:12;;;;;;;17.42;9.32;;;;;;;16.35;100.00;100993.34;5041153;28;20060;-61
2022/08/28 11:21:05;;;;;;;18.48;9.50;;;;;;;16.33;100.00;100992.63;5039972;28;20132;-61
2022/08/28 11:23:40;;;;;;;17.13;8.52;;;;;;;16.32;100.00;100997.09;5039739;28;20041;-62
2022/08/28 11:26:08;;;;;;;;;;;;;;;16.32;100.00;101002.41;5043244;28;20677;-60
2022/08/28 11:28:35;;;;;;;18.13;8.93;;;;;;;16.36;100.00;100998.53;5042514;28;19928;-58
2022/08/28 11:31:05;;;;;;;17.25;8.38;;;;;;;16.36;100.00;100998.53;5043584;28;20052;-58
2022/08/28 11:33:49;;;;;;;19.10;8.45;;;;;;;16.38;100.00;101003.72;5043965;28;20048;-60
2022/08/28 11:36:19;;;;;;;17.40;7.97;;;;;;;16.46;100.00;101006.66;5045965;28;20060;-59
2022/08/28 11:38:56;;;;;;;20.52;7.65;;;;;;;16.52;100.00;101005.31;5043013;28;20124;-59